sensor_id;sensor_type;location;lat;lon;timestamp;temperature;humidity
22035;DHT22;11181;51.002;4.356;2022-08-19T00:00:05;22.90;99.90
22035;DHT22;11181;51.002;4.356;2022-08-19T00:02:35;22.90;99.90
22035;DHT22;11181;51.002;4.356;2022-08-19T00:05:04;22.80;99.90
22035;DHT22;11181;51.002;4.356;2022-08-19T00:07:31;22.80;99.90
22035;DHT22;11181;51.002;4.356;2022-08-19T00:10:00;22.80;99.90
22035;DHT22;11181;51.002;4.356;2022-08-19T00:12:29;22.70;99.90
22035;DHT22;11181;51.002;4.356;2022-08-19T00:14:56;22.70;99.90
22035;DHT22;11181;51.002;4.356;2022-08-19T00:17:23;22.80;99.90
22035;DHT22;11181;51.002;4.356;2022-08-19T00:19:51;22.80;99.90
22035;DHT22;11181;51.002;4.356;2022-08-19T00:22:20;22.80;99.90
22035;DHT22;11181;51.002;4.356;2022-08-19T00:24:47;22.90;99.90
22035;DHT22;11181;51.002;4.356;2022-08-19T00:27:14;22.80;99.90
22035;DHT22;11181;51.002;4.356;2022-08-19T00:29:41;22.80;99.90
22035;DHT22;11181;51.002;4.356;2022-08-19T00:32:09;22.80;99.90
22035;DHT22;11181;51.002;4.356;2022-08-19T00:34:38;22.80;99.90
22035;DHT22;11181;51.002;4.356;2022-08-19T00:37:08;22.70;99.90
22035;DHT22;11181;51.002;4.356;2022-08-19T00:39:35;22.70;99.90
22035;DHT22;11181;51.002;4.356;2022-08-19T00:42:03;22.70;99.90
22035;DHT22;11181;51.002;4.356;2022-08-19T00:44:32;22.60;99.90
22035;DHT22;11181;51.002;4.356;2022-08-19T00:46:59;22.60;99.90
22035;DHT22;11181;51.002;4.356;2022-08-19T00:49:31;22.50;99.90
22035;DHT22;11181;51.002;4.356;2022-08-19T00:52:03;22.50;99.90
22035;DHT22;11181;51.002;4.356;2022-08-19T00:54:32;22.40;99.90
22035;DHT22;11181;51.002;4.356;2022-08-19T00:57:00;22.30;99.90
22035;DHT22;11181;51.002;4.356;2022-08-19T00:59:29;22.30;99.90
22035;DHT22;11181;51.002;4.356;2022-08-19T01:01:56;22.30;99.90
22035;DHT22;11181;51.002;4.356;2022-08-19T01:04:23;22.30;99.90
22035;DHT22;11181;51.002;4.356;2022-08-19T01:06:50;22.30;99.90
22035;DHT22;11181;51.002;4.356;2022-08-19T01:09:17;22.30;99.90
22035;DHT22;11181;51.002;4.356;2022-08-19T01:11:46;22.30;99.90
22035;DHT22;11181;51.002;4.356;2022-08-19T01:14:13;22.30;99.90
22035;DHT22;11181;51.002;4.356;2022-08-19T01:16:43;22.30;99.90
22035;DHT22;11181;51.002;4.356;2022-08-19T01:19:17;22.30;99.90
22035;DHT22;11181;51.002;4.356;2022-08-19T01:21:49;22.30;99.90
22035;DHT22;11181;51.002;4.356;2022-08-19T01:24:18;22.30;99.90
22035;DHT22;11181;51.002;4.356;2022-08-19T01:26:47;22.30;99.90
22035;DHT22;11181;51.002;4.356;2022-08-19T01:29:14;22.30;99.90
22035;DHT22;11181;51.002;4.356;2022-08-19T01:31:41;22.30;99.90
22035;DHT22;11181;51.002;4.356;2022-08-19T01:34:08;22.30;99.90
22035;DHT22;11181;51.002;4.356;2022-08-19T01:36:39;22.20;99.90
22035;DHT22;11181;51.002;4.356;2022-08-19T01:39:09;22.30;99.90
22035;DHT22;11181;51.002;4.356;2022-08-19T01:41:38;22.30;99.90
22035;DHT22;11181;51.002;4.356;2022-08-19T01:44:06;22.30;99.90
22035;DHT22;11181;51.002;4.356;2022-08-19T01:46:34;22.20;99.90
22035;DHT22;11181;51.002;4.356;2022-08-19T01:49:02;22.20;99.90
22035;DHT22;11181;51.002;4.356;2022-08-19T01:51:29;22.20;99.90
22035;DHT22;11181;51.002;4.356;2022-08-19T01:53:57;22.20;99.90
22035;DHT22;11181;51.002;4.356;2022-08-19T01:56:24;22.10;99.90
22035;DHT22;11181;51.002;4.356;2022-08-19T01:58:55;22.10;99.90
22035;DHT22;11181;51.002;4.356;2022-08-19T02:01:22;22.10;99.90
22035;DHT22;11181;51.002;4.356;2022-08-19T02:03:49;22.10;99.90
22035;DHT22;11181;51.002;4.356;2022-08-19T02:06:17;22.00;99.90
22035;DHT22;11181;51.002;4.356;2022-08-19T02:08:44;22.00;99.90
22035;DHT22;11181;51.002;4.356;2022-08-19T02:11:20;22.00;99.90
22035;DHT22;11181;51.002;4.356;2022-08-19T02:13:48;21.90;99.90
22035;DHT22;11181;51.002;4.356;2022-08-19T02:16:17;21.80;99.90
22035;DHT22;11181;51.002;4.356;2022-08-19T02:18:45;21.70;99.90
22035;DHT22;11181;51.002;4.356;2022-08-19T02:21:14;21.70;99.90
22035;DHT22;11181;51.002;4.356;2022-08-19T02:23:41;21.60;99.90
22035;DHT22;11181;51.002;4.356;2022-08-19T02:26:08;21.60;99.90
22035;DHT22;11181;51.002;4.356;2022-08-19T02:28:36;21.50;99.90
22035;DHT22;11181;51.002;4.356;2022-08-19T02:31:03;21.50;99.90
22035;DHT22;11181;51.002;4.356;2022-08-19T02:33:31;21.60;99.90
22035;DHT22;11181;51.002;4.356;2022-08-19T02:35:58;21.50;99.90
22035;DHT22;11181;51.002;4.356;2022-08-19T02:38:25;21.50;99.90
22035;DHT22;11181;51.002;4.356;2022-08-19T02:40:53;21.60;99.90
22035;DHT22;11181;51.002;4.356;2022-08-19T02:43:21;21.50;99.90
22035;DHT22;11181;51.002;4.356;2022-08-19T02:45:49;21.50;99.90
22035;DHT22;11181;51.002;4.356;2022-08-19T02:48:17;21.40;99.90
22035;DHT22;11181;51.002;4.356;2022-08-19T02:50:47;21.40;99.90
22035;DHT22;11181;51.002;4.356;2022-08-19T02:53:18;21.40;99.90
22035;DHT22;11181;51.002;4.356;2022-08-19T02:55:46;21.40;99.90
22035;DHT22;11181;51.002;4.356;2022-08-19T02:58:14;21.40;99.90
22035;DHT22;11181;51.002;4.356;2022-08-19T03:00:42;21.40;99.90
22035;DHT22;11181;51.002;4.356;2022-08-19T03:03:10;21.40;99.90
22035;DHT22;11181;51.002;4.356;2022-08-19T03:05:37;21.40;99.90
22035;DHT22;11181;51.002;4.356;2022-08-19T03:08:06;21.30;99.90
22035;DHT22;11181;51.002;4.356;2022-08-19T03:10:40;21.30;99.90
22035;DHT22;11181;51.002;4.356;2022-08-19T03:13:07;21.20;99.90
22035;DHT22;11181;51.002;4.356;2022-08-19T03:15:34;21.20;99.90
22035;DHT22;11181;51.002;4.356;2022-08-19T03:18:01;21.20;99.90
22035;DHT22;11181;51.002;4.356;2022-08-19T03:20:28;21.30;99.90
22035;DHT22;11181;51.002;4.356;2022-08-19T03:22:55;21.30;99.90
22035;DHT22;11181;51.002;4.356;2022-08-19T03:25:23;21.20;99.90
22035;DHT22;11181;51.002;4.356;2022-08-19T03:27:50;21.10;99.90
22035;DHT22;11181;51.002;4.356;2022-08-19T03:30:17;21.10;99.90
22035;DHT22;11181;51.002;4.356;2022-08-19T03:32:44;20.90;99.90
22035;DHT22;11181;51.002;4.356;2022-08-19T03:35:11;21.00;99.90
22035;DHT22;11181;51.002;4.356;2022-08-19T03:37:38;21.00;99.90
22035;DHT22;11181;51.002;4.356;2022-08-19T03:40:06;21.00;99.90
22035;DHT22;11181;51.002;4.356;2022-08-19T03:42:35;21.00;99.90
22035;DHT22;11181;51.002;4.356;2022-08-19T03:45:03;20.90;99.90
22035;DHT22;11181;51.002;4.356;2022-08-19T03:47:30;21.00;99.90
22035;DHT22;11181;51.002;4.356;2022-08-19T03:49:57;21.00;99.90
22035;DHT22;11181;51.002;4.356;2022-08-19T03:52:24;21.00;99.90
22035;DHT22;11181;51.002;4.356;2022-08-19T03:54:50;21.00;99.90
22035;DHT22;11181;51.002;4.356;2022-08-19T03:57:17;21.00;99.90
22035;DHT22;11181;51.002;4.356;2022-08-19T03:59:45;21.00;99.90
22035;DHT22;11181;51.002;4.356;2022-08-19T04:02:13;20.80;99.90
22035;DHT22;11181;51.002;4.356;2022-08-19T04:04:41;20.80;99.90
22035;DHT22;11181;51.002;4.356;2022-08-19T04:07:10;20.80;99.90
22035;DHT22;11181;51.002;4.356;2022-08-19T04:09:38;20.80;99.90
22035;DHT22;11181;51.002;4.356;2022-08-19T04:12:05;20.80;99.90
22035;DHT22;11181;51.002;4.356;2022-08-19T04:14:33;20.80;99.90
22035;DHT22;11181;51.002;4.356;2022-08-19T04:17:03;20.80;99.90
22035;DHT22;11181;51.002;4.356;2022-08-19T04:19:31;20.80;99.90
22035;DHT22;11181;51.002;4.356;2022-08-19T04:21:58;20.80;99.90
22035;DHT22;11181;51.002;4.356;2022-08-19T04:24:25;20.70;99.90
22035;DHT22;11181;51.002;4.356;2022-08-19T04:26:52;20.70;99.90
22035;DHT22;11181;51.002;4.356;2022-08-19T04:29:21;20.70;99.90
22035;DHT22;11181;51.002;4.356;2022-08-19T04:31:50;20.70;99.90
22035;DHT22;11181;51.002;4.356;2022-08-19T04:34:22;20.70;99.90
22035;DHT22;11181;51.002;4.356;2022-08-19T04:36:50;20.60;99.90
22035;DHT22;11181;51.002;4.356;2022-08-19T04:39:19;20.60;99.90
22035;DHT22;11181;51.002;4.356;2022-08-19T04:41:46;20.50;99.90
22035;DHT22;11181;51.002;4.356;2022-08-19T04:44:31;20.50;99.90
22035;DHT22;11181;51.002;4.356;2022-08-19T04:46:58;20.50;99.90
22035;DHT22;11181;51.002;4.356;2022-08-19T04:49:27;20.50;99.90
22035;DHT22;11181;51.002;4.356;2022-08-19T04:51:55;20.50;99.90
22035;DHT22;11181;51.002;4.356;2022-08-19T04:54:23;20.40;99.90
22035;DHT22;11181;51.002;4.356;2022-08-19T04:56:51;20.20;99.90
22035;DHT22;11181;51.002;4.356;2022-08-19T04:59:19;20.10;99.90
22035;DHT22;11181;51.002;4.356;2022-08-19T05:01:47;20.20;99.90
22035;DHT22;11181;51.002;4.356;2022-08-19T05:04:16;20.20;99.90
22035;DHT22;11181;51.002;4.356;2022-08-19T05:06:46;20.20;99.90
22035;DHT22;11181;51.002;4.356;2022-08-19T05:09:14;20.30;99.90
22035;DHT22;11181;51.002;4.356;2022-08-19T05:11:42;20.30;99.90
22035;DHT22;11181;51.002;4.356;2022-08-19T05:14:10;20.40;99.90
22035;DHT22;11181;51.002;4.356;2022-08-19T05:16:39;20.40;99.90
22035;DHT22;11181;51.002;4.356;2022-08-19T05:19:06;20.40;99.90
22035;DHT22;11181;51.002;4.356;2022-08-19T05:21:51;20.40;99.90
22035;DHT22;11181;51.002;4.356;2022-08-19T05:24:36;20.40;99.90
22035;DHT22;11181;51.002;4.356;2022-08-19T05:27:03;20.40;99.90
22035;DHT22;11181;51.002;4.356;2022-08-19T05:29:32;20.40;99.90
22035;DHT22;11181;51.002;4.356;2022-08-19T05:32:01;20.30;99.90
22035;DHT22;11181;51.002;4.356;2022-08-19T05:34:29;20.30;99.90
22035;DHT22;11181;51.002;4.356;2022-08-19T05:37:02;20.30;99.90
22035;DHT22;11181;51.002;4.356;2022-08-19T05:39:31;20.30;99.90
22035;DHT22;11181;51.002;4.356;2022-08-19T05:42:01;20.20;99.90
22035;DHT22;11181;51.002;4.356;2022-08-19T05:44:31;20.10;99.90
22035;DHT22;11181;51.002;4.356;2022-08-19T05:46:58;20.20;99.90
22035;DHT22;11181;51.002;4.356;2022-08-19T05:49:26;20.20;99.90
22035;DHT22;11181;51.002;4.356;2022-08-19T05:51:54;20.10;99.90
22035;DHT22;11181;51.002;4.356;2022-08-19T05:54:23;20.00;99.90
22035;DHT22;11181;51.002;4.356;2022-08-19T05:56:51;20.10;99.90
22035;DHT22;11181;51.002;4.356;2022-08-19T05:59:19;20.10;99.90
22035;DHT22;11181;51.002;4.356;2022-08-19T06:01:48;20.00;99.90
22035;DHT22;11181;51.002;4.356;2022-08-19T06:04:17;20.00;99.90
22035;DHT22;11181;51.002;4.356;2022-08-19T06:06:45;20.10;99.90
22035;DHT22;11181;51.002;4.356;2022-08-19T06:09:12;20.30;99.90
22035;DHT22;11181;51.002;4.356;2022-08-19T06:11:42;20.40;99.90
22035;DHT22;11181;51.002;4.356;2022-08-19T06:14:12;20.40;99.90
22035;DHT22;11181;51.002;4.356;2022-08-19T06:16:40;20.50;99.90
22035;DHT22;11181;51.002;4.356;2022-08-19T06:19:10;20.50;99.90
22035;DHT22;11181;51.002;4.356;2022-08-19T06:21:39;20.40;99.90
22035;DHT22;11181;51.002;4.356;2022-08-19T06:24:09;20.50;99.90
22035;DHT22;11181;51.002;4.356;2022-08-19T06:26:39;20.60;99.90
22035;DHT22;11181;51.002;4.356;2022-08-19T06:29:09;20.70;99.90
22035;DHT22;11181;51.002;4.356;2022-08-19T06:31:37;20.80;99.90
22035;DHT22;11181;51.002;4.356;2022-08-19T06:34:05;20.80;99.90
22035;DHT22;11181;51.002;4.356;2022-08-19T06:36:34;20.80;99.90
22035;DHT22;11181;51.002;4.356;2022-08-19T06:39:03;20.90;99.90
22035;DHT22;11181;51.002;4.356;2022-08-19T06:41:35;20.90;99.90
22035;DHT22;11181;51.002;4.356;2022-08-19T06:44:03;20.90;99.90
22035;DHT22;11181;51.002;4.356;2022-08-19T06:46:32;21.00;99.90
22035;DHT22;11181;51.002;4.356;2022-08-19T06:48:59;21.00;99.90
22035;DHT22;11181;51.002;4.356;2022-08-19T06:51:27;21.00;99.90
22035;DHT22;11181;51.002;4.356;2022-08-19T06:53:55;21.00;99.90
22035;DHT22;11181;51.002;4.356;2022-08-19T06:56:28;21.10;99.90
22035;DHT22;11181;51.002;4.356;2022-08-19T06:59:00;21.20;99.90
22035;DHT22;11181;51.002;4.356;2022-08-19T07:01:27;21.30;99.90
22035;DHT22;11181;51.002;4.356;2022-08-19T07:03:56;21.30;99.90
22035;DHT22;11181;51.002;4.356;2022-08-19T07:06:23;21.30;99.90
22035;DHT22;11181;51.002;4.356;2022-08-19T07:08:51;21.10;99.90
22035;DHT22;11181;51.002;4.356;2022-08-19T07:11:18;21.00;99.90
22035;DHT22;11181;51.002;4.356;2022-08-19T07:13:47;20.90;99.90
22035;DHT22;11181;51.002;4.356;2022-08-19T07:16:16;21.00;99.90
22035;DHT22;11181;51.002;4.356;2022-08-19T07:18:44;20.90;99.90
22035;DHT22;11181;51.002;4.356;2022-08-19T07:21:15;20.90;99.90
22035;DHT22;11181;51.002;4.356;2022-08-19T07:23:43;21.00;99.90
22035;DHT22;11181;51.002;4.356;2022-08-19T07:26:11;21.10;99.90
22035;DHT22;11181;51.002;4.356;2022-08-19T07:28:40;21.10;99.90
22035;DHT22;11181;51.002;4.356;2022-08-19T07:31:10;21.20;99.90
22035;DHT22;11181;51.002;4.356;2022-08-19T07:33:37;21.30;99.90
22035;DHT22;11181;51.002;4.356;2022-08-19T07:36:05;21.40;99.90
22035;DHT22;11181;51.002;4.356;2022-08-19T07:38:34;21.40;99.90
22035;DHT22;11181;51.002;4.356;2022-08-19T07:41:01;21.50;99.90
22035;DHT22;11181;51.002;4.356;2022-08-19T07:43:28;21.60;99.90
22035;DHT22;11181;51.002;4.356;2022-08-19T07:45:55;21.70;99.90
22035;DHT22;11181;51.002;4.356;2022-08-19T07:48:22;21.70;99.90
22035;DHT22;11181;51.002;4.356;2022-08-19T07:50:51;21.80;99.90
22035;DHT22;11181;51.002;4.356;2022-08-19T07:53:18;21.90;99.90
22035;DHT22;11181;51.002;4.356;2022-08-19T07:55:47;21.80;99.90
22035;DHT22;11181;51.002;4.356;2022-08-19T07:58:16;21.80;99.90
22035;DHT22;11181;51.002;4.356;2022-08-19T08:00:44;21.90;99.90
22035;DHT22;11181;51.002;4.356;2022-08-19T08:03:12;22.10;99.90
22035;DHT22;11181;51.002;4.356;2022-08-19T08:05:39;22.20;99.90
22035;DHT22;11181;51.002;4.356;2022-08-19T08:08:23;22.50;99.90
22035;DHT22;11181;51.002;4.356;2022-08-19T08:11:09;22.60;99.90
22035;DHT22;11181;51.002;4.356;2022-08-19T08:13:36;22.60;99.90
22035;DHT22;11181;51.002;4.356;2022-08-19T08:16:04;22.70;99.90
22035;DHT22;11181;51.002;4.356;2022-08-19T08:18:32;22.80;99.90
22035;DHT22;11181;51.002;4.356;2022-08-19T08:21:07;22.70;99.90
22035;DHT22;11181;51.002;4.356;2022-08-19T08:23:34;22.80;99.90
22035;DHT22;11181;51.002;4.356;2022-08-19T08:26:01;22.70;99.90
22035;DHT22;11181;51.002;4.356;2022-08-19T08:28:31;22.70;99.90
22035;DHT22;11181;51.002;4.356;2022-08-19T08:30:58;22.80;99.90
22035;DHT22;11181;51.002;4.356;2022-08-19T08:33:27;22.70;99.90
22035;DHT22;11181;51.002;4.356;2022-08-19T08:35:55;22.80;99.90
22035;DHT22;11181;51.002;4.356;2022-08-19T08:38:22;22.80;99.90
22035;DHT22;11181;51.002;4.356;2022-08-19T08:40:53;22.90;99.90
22035;DHT22;11181;51.002;4.356;2022-08-19T08:43:27;22.90;99.90
22035;DHT22;11181;51.002;4.356;2022-08-19T08:46:01;23.00;99.90
22035;DHT22;11181;51.002;4.356;2022-08-19T08:48:37;23.00;99.90
22035;DHT22;11181;51.002;4.356;2022-08-19T08:51:09;23.00;99.90
22035;DHT22;11181;51.002;4.356;2022-08-19T08:53:38;23.00;99.90
22035;DHT22;11181;51.002;4.356;2022-08-19T08:56:07;23.00;99.90
22035;DHT22;11181;51.002;4.356;2022-08-19T08:58:44;23.00;99.90
22035;DHT22;11181;51.002;4.356;2022-08-19T09:01:14;22.90;99.90
22035;DHT22;11181;51.002;4.356;2022-08-19T09:03:42;22.90;99.90
22035;DHT22;11181;51.002;4.356;2022-08-19T09:06:15;22.90;99.90
22035;DHT22;11181;51.002;4.356;2022-08-19T09:08:54;22.90;99.90
22035;DHT22;11181;51.002;4.356;2022-08-19T09:11:33;22.90;99.90
22035;DHT22;11181;51.002;4.356;2022-08-19T09:14:10;22.90;99.90
22035;DHT22;11181;51.002;4.356;2022-08-19T09:16:41;22.90;99.90
22035;DHT22;11181;51.002;4.356;2022-08-19T09:19:09;22.90;99.90
22035;DHT22;11181;51.002;4.356;2022-08-19T09:21:36;23.00;99.90
22035;DHT22;11181;51.002;4.356;2022-08-19T09:24:04;23.10;99.90
22035;DHT22;11181;51.002;4.356;2022-08-19T09:26:32;23.20;99.90
22035;DHT22;11181;51.002;4.356;2022-08-19T09:29:00;23.40;99.90
22035;DHT22;11181;51.002;4.356;2022-08-19T09:31:28;23.40;99.90
22035;DHT22;11181;51.002;4.356;2022-08-19T09:33:57;23.50;99.90
22035;DHT22;11181;51.002;4.356;2022-08-19T09:36:27;23.50;99.90
22035;DHT22;11181;51.002;4.356;2022-08-19T09:38:55;23.50;99.90
22035;DHT22;11181;51.002;4.356;2022-08-19T09:41:24;23.50;99.90
22035;DHT22;11181;51.002;4.356;2022-08-19T09:43:54;23.40;99.90
22035;DHT22;11181;51.002;4.356;2022-08-19T09:46:22;23.40;99.90
22035;DHT22;11181;51.002;4.356;2022-08-19T09:48:52;23.40;99.90
22035;DHT22;11181;51.002;4.356;2022-08-19T09:51:23;23.30;99.90
22035;DHT22;11181;51.002;4.356;2022-08-19T09:53:51;23.40;99.90
22035;DHT22;11181;51.002;4.356;2022-08-19T09:56:20;23.40;99.90
22035;DHT22;11181;51.002;4.356;2022-08-19T09:58:48;23.40;99.90
22035;DHT22;11181;51.002;4.356;2022-08-19T10:01:18;23.50;99.90
22035;DHT22;11181;51.002;4.356;2022-08-19T10:03:48;23.50;99.90
22035;DHT22;11181;51.002;4.356;2022-08-19T10:06:16;23.60;99.90
22035;DHT22;11181;51.002;4.356;2022-08-19T10:08:45;23.70;99.90
22035;DHT22;11181;51.002;4.356;2022-08-19T10:11:13;23.70;99.90
22035;DHT22;11181;51.002;4.356;2022-08-19T10:13:42;23.70;99.90
22035;DHT22;11181;51.002;4.356;2022-08-19T10:16:12;23.70;99.90
22035;DHT22;11181;51.002;4.356;2022-08-19T10:18:40;23.80;99.90
22035;DHT22;11181;51.002;4.356;2022-08-19T10:21:12;23.80;99.90
22035;DHT22;11181;51.002;4.356;2022-08-19T10:23:41;23.90;99.90
22035;DHT22;11181;51.002;4.356;2022-08-19T10:26:14;24.00;99.90
22035;DHT22;11181;51.002;4.356;2022-08-19T10:28:42;24.10;99.90
22035;DHT22;11181;51.002;4.356;2022-08-19T10:31:12;24.30;99.90
22035;DHT22;11181;51.002;4.356;2022-08-19T10:33:40;24.40;99.90
22035;DHT22;11181;51.002;4.356;2022-08-19T10:36:10;24.40;99.90
22035;DHT22;11181;51.002;4.356;2022-08-19T10:38:37;24.40;99.90
22035;DHT22;11181;51.002;4.356;2022-08-19T10:41:08;24.50;99.90
22035;DHT22;11181;51.002;4.356;2022-08-19T10:43:38;24.50;99.90
22035;DHT22;11181;51.002;4.356;2022-08-19T10:46:05;24.60;99.90
22035;DHT22;11181;51.002;4.356;2022-08-19T10:48:32;24.70;99.90
22035;DHT22;11181;51.002;4.356;2022-08-19T10:51:00;24.60;99.90
22035;DHT22;11181;51.002;4.356;2022-08-19T10:53:45;24.50;99.90
22035;DHT22;11181;51.002;4.356;2022-08-19T10:56:12;24.50;99.90
22035;DHT22;11181;51.002;4.356;2022-08-19T10:58:58;24.50;99.90
22035;DHT22;11181;51.002;4.356;2022-08-19T11:01:26;24.50;99.90
22035;DHT22;11181;51.002;4.356;2022-08-19T11:03:55;24.50;99.90
22035;DHT22;11181;51.002;4.356;2022-08-19T11:06:23;24.40;99.90
22035;DHT22;11181;51.002;4.356;2022-08-19T11:08:51;24.40;99.90
22035;DHT22;11181;51.002;4.356;2022-08-19T11:11:18;24.40;99.90
22035;DHT22;11181;51.002;4.356;2022-08-19T11:13:45;24.30;99.90
22035;DHT22;11181;51.002;4.356;2022-08-19T11:16:16;24.20;99.90
22035;DHT22;11181;51.002;4.356;2022-08-19T11:18:45;24.00;99.90
22035;DHT22;11181;51.002;4.356;2022-08-19T11:21:14;24.00;99.90
22035;DHT22;11181;51.002;4.356;2022-08-19T11:23:43;23.90;99.90
22035;DHT22;11181;51.002;4.356;2022-08-19T11:26:10;23.90;99.90
22035;DHT22;11181;51.002;4.356;2022-08-19T11:28:37;23.90;99.90
22035;DHT22;11181;51.002;4.356;2022-08-19T11:31:09;24.00;99.90
22035;DHT22;11181;51.002;4.356;2022-08-19T11:33:39;24.10;99.90
22035;DHT22;11181;51.002;4.356;2022-08-19T11:36:06;24.30;99.90
22035;DHT22;11181;51.002;4.356;2022-08-19T11:38:34;24.40;99.90
22035;DHT22;11181;51.002;4.356;2022-08-19T11:41:04;24.40;99.90
22035;DHT22;11181;51.002;4.356;2022-08-19T11:43:31;24.50;99.90
22035;DHT22;11181;51.002;4.356;2022-08-19T11:45:58;24.50;99.90
22035;DHT22;11181;51.002;4.356;2022-08-19T11:48:25;24.60;99.90
22035;DHT22;11181;51.002;4.356;2022-08-19T11:50:54;24.60;99.90
22035;DHT22;11181;51.002;4.356;2022-08-19T11:53:22;24.80;99.90
22035;DHT22;11181;51.002;4.356;2022-08-19T11:55:52;25.10;99.90
22035;DHT22;11181;51.002;4.356;2022-08-19T11:58:23;25.30;99.90
22035;DHT22;11181;51.002;4.356;2022-08-19T12:00:50;25.50;99.90
22035;DHT22;11181;51.002;4.356;2022-08-19T12:03:18;25.60;99.90
22035;DHT22;11181;51.002;4.356;2022-08-19T12:05:45;25.70;99.90
22035;DHT22;11181;51.002;4.356;2022-08-19T12:08:14;25.70;99.90
22035;DHT22;11181;51.002;4.356;2022-08-19T12:10:42;25.80;99.90
22035;DHT22;11181;51.002;4.356;2022-08-19T12:13:09;25.90;99.90
22035;DHT22;11181;51.002;4.356;2022-08-19T12:15:39;26.00;99.90
22035;DHT22;11181;51.002;4.356;2022-08-19T12:18:07;26.00;99.90
22035;DHT22;11181;51.002;4.356;2022-08-19T12:20:35;26.10;99.90
22035;DHT22;11181;51.002;4.356;2022-08-19T12:23:02;26.20;99.90
22035;DHT22;11181;51.002;4.356;2022-08-19T12:25:31;26.10;99.90
22035;DHT22;11181;51.002;4.356;2022-08-19T12:28:00;26.10;99.90
22035;DHT22;11181;51.002;4.356;2022-08-19T12:30:27;26.10;99.90
22035;DHT22;11181;51.002;4.356;2022-08-19T12:32:54;26.20;99.90
22035;DHT22;11181;51.002;4.356;2022-08-19T12:35:21;26.30;99.90
22035;DHT22;11181;51.002;4.356;2022-08-19T12:37:49;26.40;99.90
22035;DHT22;11181;51.002;4.356;2022-08-19T12:40:16;26.60;99.90
22035;DHT22;11181;51.002;4.356;2022-08-19T12:42:45;26.50;99.90
22035;DHT22;11181;51.002;4.356;2022-08-19T12:45:14;26.60;99.90
22035;DHT22;11181;51.002;4.356;2022-08-19T12:47:41;26.50;99.90
22035;DHT22;11181;51.002;4.356;2022-08-19T12:50:09;26.40;99.90
22035;DHT22;11181;51.002;4.356;2022-08-19T12:52:36;26.40;99.90
22035;DHT22;11181;51.002;4.356;2022-08-19T12:55:05;26.50;99.90
22035;DHT22;11181;51.002;4.356;2022-08-19T12:57:33;26.50;99.90
22035;DHT22;11181;51.002;4.356;2022-08-19T13:00:10;26.60;99.90
22035;DHT22;11181;51.002;4.356;2022-08-19T13:02:40;26.70;99.90
22035;DHT22;11181;51.002;4.356;2022-08-19T13:05:09;26.70;99.90
22035;DHT22;11181;51.002;4.356;2022-08-19T13:07:36;26.80;99.90
22035;DHT22;11181;51.002;4.356;2022-08-19T13:10:05;26.90;99.90
22035;DHT22;11181;51.002;4.356;2022-08-19T13:12:32;27.00;99.90
22035;DHT22;11181;51.002;4.356;2022-08-19T13:14:59;27.20;99.90
22035;DHT22;11181;51.002;4.356;2022-08-19T13:17:27;27.30;99.90
22035;DHT22;11181;51.002;4.356;2022-08-19T13:19:54;27.50;99.90
22035;DHT22;11181;51.002;4.356;2022-08-19T13:22:21;27.50;99.90
22035;DHT22;11181;51.002;4.356;2022-08-19T13:24:49;27.50;99.90
22035;DHT22;11181;51.002;4.356;2022-08-19T13:27:16;27.40;99.90
22035;DHT22;11181;51.002;4.356;2022-08-19T13:29:43;27.40;99.90
22035;DHT22;11181;51.002;4.356;2022-08-19T13:32:29;27.60;99.90
22035;DHT22;11181;51.002;4.356;2022-08-19T13:35:14;27.60;99.90
22035;DHT22;11181;51.002;4.356;2022-08-19T13:37:42;27.80;99.90
22035;DHT22;11181;51.002;4.356;2022-08-19T13:40:12;27.70;99.90
22035;DHT22;11181;51.002;4.356;2022-08-19T13:42:41;28.00;99.90
22035;DHT22;11181;51.002;4.356;2022-08-19T13:45:09;28.00;99.90
22035;DHT22;11181;51.002;4.356;2022-08-19T13:47:37;28.00;99.90
22035;DHT22;11181;51.002;4.356;2022-08-19T13:50:11;28.30;99.90
22035;DHT22;11181;51.002;4.356;2022-08-19T13:52:39;28.70;99.90
22035;DHT22;11181;51.002;4.356;2022-08-19T13:55:08;28.50;99.90
22035;DHT22;11181;51.002;4.356;2022-08-19T13:57:36;28.20;99.90
22035;DHT22;11181;51.002;4.356;2022-08-19T14:00:07;27.90;99.90
22035;DHT22;11181;51.002;4.356;2022-08-19T14:02:37;27.90;99.90
22035;DHT22;11181;51.002;4.356;2022-08-19T14:05:08;28.20;99.90
22035;DHT22;11181;51.002;4.356;2022-08-19T14:07:37;28.30;99.90
22035;DHT22;11181;51.002;4.356;2022-08-19T14:10:06;28.30;99.90
22035;DHT22;11181;51.002;4.356;2022-08-19T14:12:34;28.30;99.90
22035;DHT22;11181;51.002;4.356;2022-08-19T14:15:02;28.30;99.90
22035;DHT22;11181;51.002;4.356;2022-08-19T14:17:30;28.20;99.90
22035;DHT22;11181;51.002;4.356;2022-08-19T14:19:59;28.20;99.90
22035;DHT22;11181;51.002;4.356;2022-08-19T14:22:32;28.00;99.90
22035;DHT22;11181;51.002;4.356;2022-08-19T14:24:59;27.90;99.90
22035;DHT22;11181;51.002;4.356;2022-08-19T14:27:26;27.40;99.90
22035;DHT22;11181;51.002;4.356;2022-08-19T14:29:53;27.30;99.90
22035;DHT22;11181;51.002;4.356;2022-08-19T14:32:21;27.30;99.90
22035;DHT22;11181;51.002;4.356;2022-08-19T14:34:48;27.10;99.90
22035;DHT22;11181;51.002;4.356;2022-08-19T14:37:16;27.00;99.90
22035;DHT22;11181;51.002;4.356;2022-08-19T14:39:44;26.90;99.90
22035;DHT22;11181;51.002;4.356;2022-08-19T14:42:11;26.70;99.90
22035;DHT22;11181;51.002;4.356;2022-08-19T14:44:40;26.70;99.90
22035;DHT22;11181;51.002;4.356;2022-08-19T14:47:08;26.50;99.90
22035;DHT22;11181;51.002;4.356;2022-08-19T14:49:35;26.20;99.90
22035;DHT22;11181;51.002;4.356;2022-08-19T14:52:03;26.10;99.90
22035;DHT22;11181;51.002;4.356;2022-08-19T14:54:32;26.10;99.90
22035;DHT22;11181;51.002;4.356;2022-08-19T14:56:59;26.10;99.90
22035;DHT22;11181;51.002;4.356;2022-08-19T14:59:26;26.10;99.90
22035;DHT22;11181;51.002;4.356;2022-08-19T15:01:53;26.10;99.90
22035;DHT22;11181;51.002;4.356;2022-08-19T15:04:20;26.20;99.90
22035;DHT22;11181;51.002;4.356;2022-08-19T15:06:47;26.30;99.90
22035;DHT22;11181;51.002;4.356;2022-08-19T15:09:16;26.50;99.90
22035;DHT22;11181;51.002;4.356;2022-08-19T15:11:44;26.70;99.90
22035;DHT22;11181;51.002;4.356;2022-08-19T15:14:11;26.90;99.90
22035;DHT22;11181;51.002;4.356;2022-08-19T15:16:40;26.90;99.90
22035;DHT22;11181;51.002;4.356;2022-08-19T15:19:08;26.90;99.90
22035;DHT22;11181;51.002;4.356;2022-08-19T15:21:35;26.90;99.90
22035;DHT22;11181;51.002;4.356;2022-08-19T15:24:03;26.80;99.90
22035;DHT22;11181;51.002;4.356;2022-08-19T15:26:31;26.80;99.90
22035;DHT22;11181;51.002;4.356;2022-08-19T15:29:00;26.90;99.90
22035;DHT22;11181;51.002;4.356;2022-08-19T15:31:28;26.80;99.90
22035;DHT22;11181;51.002;4.356;2022-08-19T15:34:02;26.70;99.90
22035;DHT22;11181;51.002;4.356;2022-08-19T15:36:31;27.00;99.90
22035;DHT22;11181;51.002;4.356;2022-08-19T15:38:59;27.10;99.90